Time;durP1;ratioP1;P1;durP2;ratioP2;P2;SDS_P1;SDS_P2;PMS_P1;PMS_P2;Temp;Humidity;BMP_temperature;BMP_pressure;BME280_temperature;BME280_humidity;BME280_pressure;Samples;Min_cycle;Max_cycle;Signal;HPM_P1;HPM_P2
2022/12/26 00:01:54;;;;;;;15.57;11.02;;;16.60;78.80;;;18.51;42.66;98841.84;5030780;28;20041;-78
2022/12/26 00:04:21;;;;;;;17.42;12.05;;;16.70;78.70;;;18.51;42.43;98846.53;5027244;28;20041;-78
2022/12/26 00:06:47;;;;;;;16.92;11.13;;;16.70;78.70;;;18.51;42.50;98841.03;5029341;28;20052;-78
2022/12/26 00:09:13;;;;;;;15.15;10.57;;;16.70;78.50;;;18.51;42.88;98830.84;5001156;28;20040;-78
2022/12/26 00:11:39;;;;;;;12.95;10.13;;;16.70;79.00;;;18.53;42.75;98823.09;5030019;28;20444;-78
2022/12/26 00:14:13;;;;;;;19.52;11.35;;;16.70;79.00;;;18.51;42.70;98811.63;5034489;28;20074;-78
2022/12/26 00:16:44;;;;;;;14.50;10.63;;;16.70;78.90;;;18.53;42.58;98805.81;5027593;28;20543;-78
2022/12/26 00:19:11;;;;;;;15.73;11.30;;;16.70;78.70;;;18.55;42.74;98789.81;5031909;28;20131;-78
2022/12/26 00:21:36;;;;;;;14.52;9.95;;;16.70;78.70;;;18.54;42.68;98796.44;5027091;28;20514;-78
2022/12/26 00:24:03;;;;;;;15.02;11.05;;;16.70;78.60;;;18.55;42.81;98798.06;5015428;28;20502;-78
2022/12/26 00:26:31;;;;;;;11.65;9.45;;;16.70;78.70;;;18.47;42.85;98783.22;5013679;28;20036;-78
2022/12/26 00:28:57;;;;;;;15.48;10.18;;;16.70;78.80;;;18.50;42.94;98796.28;5047576;28;20051;-78
2022/12/26 00:31:28;;;;;;;16.83;11.25;;;16.70;79.00;;;18.53;42.80;98792.06;5015635;28;20045;-78
2022/12/26 00:33:55;;;;;;;13.80;10.82;;;16.70;78.90;;;18.54;42.52;98791.75;5011945;28;20051;-78
2022/12/26 00:36:28;;;;;;;15.55;10.82;;;16.70;78.80;;;18.53;42.44;98797.56;5044848;28;20068;-78
2022/12/26 00:38:56;;;;;;;14.80;10.90;;;16.70;78.70;;;18.52;42.53;98798.69;5017989;28;20495;-78
2022/12/26 00:41:21;;;;;;;14.05;11.05;;;16.70;78.50;;;18.50;42.82;98795.50;5048153;28;20041;-78
2022/12/26 00:43:48;;;;;;;12.82;9.95;;;16.70;78.90;;;18.52;42.81;98801.44;5046453;28;20037;-77
2022/12/26 00:46:15;;;;;;;15.55;10.82;;;16.70;78.90;;;18.57;42.71;98795.78;5031589;28;20499;-77
2022/12/26 00:48:41;;;;;;;12.57;10.38;;;16.70;78.80;;;18.51;42.46;98792.41;5020080;28;20700;-78
2022/12/26 00:51:08;;;;;;;15.07;11.35;;;16.70;78.80;;;18.55;42.56;98793.38;5050977;28;20041;-78
2022/12/26 00:53:34;;;;;;;17.00;10.88;;;16.70;78.60;;;18.51;42.39;98803.38;5031767;28;20131;-78
2022/12/26 00:56:00;;;;;;;12.70;9.70;;;16.70;78.40;;;18.52;42.42;98788.53;5030295;28;20039;-78
2022/12/26 00:58:26;;;;;;;12.80;10.18;;;16.70;78.40;;;18.56;42.33;98789.47;5045543;28;20423;-77
2022/12/26 01:00:52;;;;;;;13.77;10.35;;;16.70;78.40;;;18.51;42.37;98778.66;5013872;28;20049;-78
2022/12/26 01:03:19;;;;;;;17.42;11.73;;;16.70;78.40;;;18.53;42.33;98786.59;5018271;28;20075;-78
2022/12/26 01:05:47;;;;;;;16.08;10.60;;;16.70;78.40;;;18.51;42.50;98775.13;5011252;28;20295;-77
2022/12/26 01:08:14;;;;;;;13.63;10.73;;;16.70;78.40;;;18.53;42.26;98783.84;5031042;28;20357;-78
2022/12/26 01:10:44;;;;;;;16.35;10.95;;;16.80;78.20;;;18.47;42.48;98777.72;5012543;28;20356;-78
2022/12/26 01:13:10;;;;;;;17.38;11.35;;;16.70;78.10;;;18.49;42.37;98780.13;5028281;28;20069;-78
2022/12/26 01:15:36;;;;;;;15.50;10.98;;;16.70;78.00;;;18.52;42.10;98782.22;5032487;28;20048;-78
2022/12/26 01:18:02;;;;;;;15.18;11.45;;;16.70;78.10;;;18.50;42.22;98771.56;5000737;28;20051;-78
2022/12/26 01:20:29;;;;;;;17.67;12.32;;;16.70;78.20;;;18.47;42.32;98764.00;5031606;28;20468;-78
2022/12/26 01:22:55;;;;;;;14.27;10.02;;;16.70;78.30;;;18.50;42.33;98773.50;5018487;28;20369;-78
2022/12/26 01:25:22;;;;;;;13.05;10.75;;;16.60;78.10;;;18.47;42.19;98771.41;5011023;28;20043;-77
2022/12/26 01:27:48;;;;;;;18.45;11.10;;;16.70;78.10;;;18.46;42.20;98770.59;5046044;28;20098;-78
2022/12/26 01:30:14;;;;;;;13.27;11.57;;;16.60;78.00;;;18.49;42.18;98769.94;5029345;28;20146;-78
2022/12/26 01:32:40;;;;;;;20.50;12.60;;;16.60;78.10;;;18.51;42.19;98753.13;5046971;28;20044;-78
2022/12/26 01:35:07;;;;;;;18.17;11.88;;;16.70;78.10;;;18.49;42.52;98760.91;5018628;28;20566;-78
2022/12/26 01:37:33;;;;;;;15.88;11.75;;;16.60;78.30;;;18.47;42.69;98750.25;5013659;28;20044;-78
2022/12/26 01:39:59;;;;;;;14.75;10.38;;;16.60;78.60;;;18.44;42.55;98754.47;4996323;28;20060;-78
2022/12/26 01:42:25;;;;;;;15.50;11.27;;;16.60;78.40;;;18.47;42.32;98776.88;5028707;28;20040;-77
2022/12/26 01:45:29;;;;;;;13.75;10.30;;;16.60;78.30;;;18.44;42.42;98773.69;5013196;28;20102;-78
2022/12/26 01:48:05;;;;;;;18.20;11.50;;;16.60;78.20;;;18.41;42.21;98765.28;5027513;28;20049;-78
2022/12/26 01:50:39;;;;;;;13.35;10.77;;;16.60;78.30;;;18.43;42.51;98763.81;5048358;28;20045;-78
2022/12/26 01:53:13;;;;;;;14.13;10.45;;;16.60;78.20;;;18.46;42.15;98770.59;5046488;28;20072;-78
2022/12/26 01:55:42;;;;;;;15.88;10.55;;;16.70;78.00;;;18.43;42.53;98769.31;5027736;28;20076;-78
2022/12/26 01:58:18;;;;;;;17.45;11.32;;;16.60;78.10;;;18.41;42.44;98766.06;5002720;28;20044;-78
2022/12/26 02:00:44;;;;;;;13.25;10.65;;;16.60;78.10;;;18.46;42.47;98769.78;5032179;28;20041;-78
2022/12/26 02:05:56;;;;;;;14.50;10.85;;;16.60;78.30;;;18.41;42.59;98752.34;5032987;28;20442;-78
2022/12/26 02:08:27;;;;;;;14.45;11.07;;;16.60;78.50;;;18.46;42.43;98750.56;5016507;28;20082;-78
2022/12/26 02:11:18;;;;;;;14.68;11.13;;;16.60;78.30;;;18.40;42.32;98742.50;4997299;28;20033;-78
2022/12/26 02:13:44;;;;;;;13.80;11.18;;;16.60;78.10;;;18.44;42.40;98739.91;5018955;28;20045;-78
2022/12/26 02:16:13;;;;;;;15.70;10.98;;;16.60;78.10;;;18.44;42.27;98731.66;5044993;28;20078;-78
2022/12/26 02:18:39;;;;;;;13.13;11.13;;;16.70;78.10;;;18.42;42.63;98740.25;5031446;28;20044;-78
2022/12/26 02:21:30;;;;;;;15.13;9.80;;;16.70;78.20;;;18.34;42.63;98732.84;5013118;28;20452;-78
2022/12/26 02:24:41;;;;;;;16.63;10.93;;;16.70;78.40;;;18.43;42.51;98741.84;5030516;28;20041;-78
2022/12/26 02:27:51;;;;;;;15.30;10.82;;;16.70;78.00;;;18.42;42.40;98729.25;5026789;28;20726;-78
2022/12/26 02:30:54;;;;;;;13.95;10.90;;;16.70;78.10;;;18.35;42.11;98717.97;5049508;28;20036;-78
2022/12/26 02:34:14;;;;;;;16.30;12.10;;;16.60;78.20;;;18.38;42.12;98716.50;5051006;28;20800;-78
2022/12/26 02:37:22;;;;;;;15.70;11.32;;;16.60;78.00;;;18.36;42.26;98697.59;5038893;28;20064;-78
2022/12/26 02:40:20;;;;;;;14.32;11.25;;;16.60;77.90;;;18.37;42.46;98676.47;5034283;28;20123;-78
2022/12/26 02:42:55;;;;;;;19.90;11.75;;;16.60;78.00;;;18.32;42.28;98666.44;5060225;28;20077;-78
2022/12/26 02:49:00;;;;;;;14.77;10.50;;;16.70;78.10;;;18.37;42.36;98655.28;5049309;28;20033;-78
2022/12/26 03:15:24;;;;;;;16.20;11.25;;;16.70;77.60;;;18.34;42.26;98669.69;5041836;28;20041;-78
2022/12/26 03:18:01;;;;;;;17.85;12.30;;;16.70;77.60;;;18.31;42.29;98661.28;5011308;28;20051;-78
2022/12/26 03:20:29;;;;;;;13.75;10.40;;;16.70;77.50;;;18.33;42.42;98664.50;5030966;28;20443;-78
2022/12/26 03:23:11;;;;;;;19.48;11.98;;;16.70;77.50;;;18.31;42.23;98669.50;5016316;28;20097;-78
2022/12/26 03:28:38;;;;;;;17.23;11.37;;;16.70;77.50;;;18.33;42.12;98654.31;5039284;28;20046;-78
2022/12/26 03:31:07;;;;;;;15.50;11.38;;;16.70;77.50;;;18.36;42.34;98659.16;5030506;28;20266;-78
2022/12/26 03:36:28;;;;;;;17.02;11.80;;;16.60;77.70;;;18.32;42.22;98658.22;5024341;28;20385;-78
2022/12/26 04:19:22;;;;;;;16.63;11.95;;;16.60;77.50;;;18.36;42.08;98656.41;5046897;28;20036;-78
2022/12/26 04:44:35;;;;;;;13.50;10.70;;;16.50;77.00;;;18.14;42.27;98582.53;5034718;28;20083;-78
2022/12/26 04:47:01;;;;;;;13.52;10.35;;;16.50;77.20;;;18.22;42.12;98578.94;5016751;28;20048;-78
2022/12/26 04:52:13;;;;;;;16.67;11.38;;;16.50;77.10;;;18.19;42.19;98574.94;5023104;28;20056;-78
2022/12/26 04:54:40;;;;;;;14.68;12.10;;;16.60;77.20;;;18.12;42.21;98579.31;5025667;28;20045;-78
2022/12/26 04:57:06;;;;;;;14.55;11.32;;;16.60;77.30;;;18.17;42.27;98581.88;5030814;28;20051;-78
2022/12/26 04:59:33;;;;;;;16.42;11.40;;;16.50;77.00;;;18.16;41.89;98581.06;5016375;28;20041;-78
2022/12/26 05:10:27;;;;;;;18.30;11.68;;;16.50;77.10;;;18.14;41.97;98601.72;5035539;28;20120;-78
2022/12/26 05:12:53;;;;;;;15.00;10.93;;;16.50;77.20;;;18.14;42.37;98596.25;5042823;28;20499;-78
2022/12/26 05:15:20;;;;;;;17.80;11.75;;;16.50;77.30;;;18.13;42.07;98597.38;5035059;28;20046;-78
2022/12/26 05:29:04;;;;;;;13.23;10.45;;;16.50;77.10;;;18.10;42.03;98612.56;5046817;28;20488;-78
2022/12/26 05:31:30;;;;;;;14.73;10.88;;;16.50;76.90;;;18.10;42.14;98612.56;5028629;28;20049;-78
2022/12/26 05:34:11;;;;;;;13.40;10.18;;;16.50;76.90;;;18.11;41.97;98600.44;5019233;28;20150;-78
2022/12/26 05:36:43;;;;;;;13.43;10.25;;;16.50;77.00;;;18.08;41.98;98606.59;5035184;28;20040;-78
2022/12/26 05:39:09;;;;;;;14.23;10.80;;;16.50;77.20;;;18.08;42.25;98606.59;5016868;28;20558;-78
2022/12/26 05:41:36;;;;;;;15.15;11.73;;;16.50;77.20;;;18.06;42.40;98605.31;5044614;28;20047;-78
2022/12/26 05:44:03;;;;;;;14.20;11.35;;;16.50;77.20;;;18.09;42.44;98604.66;5016248;28;20072;-78
2022/12/26 05:46:29;;;;;;;14.77;11.52;;;16.40;77.20;;;18.07;42.01;98606.94;5014909;28;20056;-78
2022/12/26 05:48:55;;;;;;;17.67;12.30;;;16.50;77.40;;;18.07;42.12;98612.44;5027877;28;20090;-77
2022/12/26 05:51:22;;;;;;;14.05;10.32;;;16.50;77.10;;;18.10;42.15;98609.81;5000473;28;20068;-78
2022/12/26 05:53:48;;;;;;;16.17;11.95;;;16.50;77.10;;;18.09;42.37;98610.16;5034211;28;20555;-77
2022/12/26 05:56:15;;;;;;;16.60;11.07;;;16.50;77.20;;;18.09;42.13;98610.97;5029821;28;20045;-78
2022/12/26 05:58:41;;;;;;;15.43;10.30;;;16.50;77.40;;;18.01;42.46;98609.03;5046503;28;20048;-77
2022/12/26 06:01:14;;;;;;;15.27;10.50;;;16.50;77.40;;;18.06;42.13;98602.56;5000336;28;20037;-77
2022/12/26 06:03:42;;;;;;;12.98;10.48;;;16.50;77.10;;;18.06;42.26;98622.59;5027598;28;20412;-77
2022/12/26 06:06:08;;;;;;;13.27;10.95;;;16.50;77.30;;;18.06;41.80;98632.75;5018046;28;20041;-78
2022/12/26 06:08:34;;;;;;;16.58;10.82;;;16.50;77.10;;;18.07;42.15;98642.63;5016326;28;20524;-77
2022/12/26 06:11:10;;;;;;;14.00;10.52;;;16.50;77.00;;;18.03;42.25;98639.72;5026175;28;20049;-77
2022/12/26 06:13:36;;;;;;;13.15;10.25;;;16.50;77.30;;;18.04;42.56;98624.88;5018446;28;20535;-78
2022/12/26 06:16:07;;;;;;;15.32;11.25;;;16.50;77.50;;;18.00;42.51;98624.69;4999020;28;20040;-78
2022/12/26 06:18:33;;;;;;;13.45;10.35;;;16.50;77.10;;;18.06;42.10;98616.28;5045222;28;20059;-77
2022/12/26 06:21:04;;;;;;;15.35;10.57;;;16.50;77.10;;;18.00;42.39;98613.72;5012608;28;20142;-77
2022/12/26 06:23:30;;;;;;;15.93;10.82;;;16.40;77.10;;;18.05;41.94;98610.00;5017418;28;20053;-78
2022/12/26 06:25:56;;;;;;;14.27;11.18;;;16.50;77.00;;;17.99;42.48;98619.56;5030090;28;20037;-78
2022/12/26 06:28:23;;;;;;;12.68;9.32;;;16.40;77.30;;;17.98;42.33;98616.00;5046716;28;20051;-78
2022/12/26 06:30:50;;;;;;;13.48;10.20;;;16.40;77.50;;;17.97;42.43;98617.13;5030590;28;20094;-78
2022/12/26 06:33:17;;;;;;;13.70;10.45;;;16.30;77.60;;;17.94;42.57;98617.00;5016157;28;20067;-78
2022/12/26 06:35:43;;;;;;;15.65;9.50;;;16.40;78.10;;;17.98;42.44;98616.00;5029547;28;20098;-78
2022/12/26 06:38:09;;;;;;;13.75;11.07;;;16.40;77.30;;;18.00;42.31;98610.97;5030373;28;20057;-77
2022/12/26 06:40:41;;;;;;;13.20;10.90;;;16.40;77.30;;;17.97;42.19;98614.38;5046958;28;20102;-78
2022/12/26 06:43:07;;;;;;;14.98;10.60;;;16.40;78.20;;;17.92;42.28;98611.81;5034369;28;20040;-78
2022/12/26 06:45:34;;;;;;;13.23;10.55;;;16.40;77.10;;;17.91;42.58;98620.38;5028731;28;20051;-77
2022/12/26 06:48:01;;;;;;;17.25;10.35;;;16.30;77.30;;;17.95;42.44;98630.38;5030680;28;20040;-78
2022/12/26 06:50:27;;;;;;;15.45;10.68;;;16.30;77.30;;;17.97;42.35;98647.31;5012986;28;20033;-78
2022/12/26 06:52:53;;;;;;;15.35;10.25;;;16.40;77.60;;;17.93;42.55;98631.81;5017202;28;20385;-77
2022/12/26 06:55:19;;;;;;;14.13;11.00;;;16.30;77.60;;;17.96;42.73;98645.72;5029422;28;20040;-78
2022/12/26 06:57:45;;;;;;;14.32;9.90;;;16.30;78.00;;;17.95;42.65;98640.53;5011835;28;20391;-78
2022/12/26 07:00:13;;;;;;;14.80;11.35;;;16.30;77.70;;;17.97;42.46;98632.81;5044847;28;20037;-78
2022/12/26 07:02:39;;;;;;;16.00;10.38;;;16.30;77.80;;;17.97;42.50;98617.13;5014245;28;20045;-77
2022/12/26 07:05:05;;;;;;;14.48;10.93;;;16.30;77.60;;;17.92;42.65;98622.00;5015560;28;20051;-77
2022/12/26 07:07:31;;;;;;;13.32;10.43;;;16.30;77.60;;;17.91;42.41;98620.38;5029373;28;20099;-78
2022/12/26 07:09:57;;;;;;;13.52;9.77;;;16.30;77.20;;;17.83;41.85;98611.03;5011666;28;20489;-78
2022/12/26 07:12:23;;;;;;;12.40;10.48;;;16.30;76.50;;;17.81;41.62;98623.44;5045503;28;20037;-78
2022/12/26 07:14:50;;;;;;;14.00;10.13;;;16.30;76.00;;;17.84;41.24;98640.09;5035084;28;20377;-78
2022/12/26 07:17:16;;;;;;;16.30;11.18;;;16.20;75.50;;;17.79;41.08;98645.72;5040850;28;20037;-78
2022/12/26 07:19:42;;;;;;;18.42;11.98;;;16.20;75.20;;;17.87;40.65;98641.38;5032294;28;20036;-78
2022/12/26 07:22:08;;;;;;;16.58;11.75;;;16.20;74.60;;;17.83;40.56;98643.94;5029862;28;20039;-78
2022/12/26 07:24:37;;;;;;;15.10;11.63;;;16.10;74.40;;;17.76;40.47;98636.19;5000640;28;20063;-78
2022/12/26 07:27:04;;;;;;;23.05;13.57;;;16.10;74.40;;;17.84;40.32;98631.84;5014370;28;20164;-77
2022/12/26 07:29:30;;;;;;;21.65;10.90;;;16.10;74.50;;;17.85;40.63;98627.97;5010590;28;20037;-77
2022/12/26 07:31:56;;;;;;;17.70;11.88;;;16.10;74.40;;;17.82;40.67;98633.31;5044973;28;20061;-77
2022/12/26 07:34:23;;;;;;;17.30;12.10;;;16.10;74.50;;;17.89;40.59;98634.44;5047324;28;20055;-77
2022/12/26 07:36:49;;;;;;;13.45;10.38;;;16.10;74.60;;;17.84;40.69;98637.34;5009948;28;20392;-77
2022/12/26 07:39:16;;;;;;;15.60;11.43;;;16.20;74.70;;;17.87;40.71;98639.44;5034374;28;20074;-77
2022/12/26 07:41:56;;;;;;;14.25;10.40;;;16.20;74.60;;;17.87;40.68;98641.38;5028702;28;20048;-77
2022/12/26 07:44:27;;;;;;;17.05;11.85;;;16.20;74.70;;;17.85;40.76;98636.19;5057943;28;20043;-77
2022/12/26 07:46:53;;;;;;;19.20;12.10;;;16.10;75.10;;;17.86;41.21;98637.84;5029573;28;20135;-77
2022/12/26 07:49:20;;;;;;;20.08;12.02;;;16.20;75.70;;;17.88;41.00;98649.25;5010920;28;20052;-77
2022/12/26 07:51:45;;;;;;;17.15;11.85;;;16.20;75.80;;;17.91;41.50;98662.34;5041055;28;20476;-78
2022/12/26 07:54:12;;;;;;;14.32;10.57;;;16.20;75.80;;;17.87;41.08;98680.59;5015275;28;20060;-78
2022/12/26 07:56:39;;;;;;;16.67;10.68;;;16.20;75.30;;;17.90;41.08;98679.94;5050006;28;20036;-77
2022/12/26 07:59:06;;;;;;;14.93;11.75;;;16.30;75.20;;;17.88;41.21;98671.22;5037156;28;20046;-77
2022/12/26 08:01:31;;;;;;;15.30;11.90;;;16.20;75.70;;;17.96;41.20;98661.34;5011369;28;20441;-77
2022/12/26 08:03:58;;;;;;;15.93;10.68;;;16.20;76.00;;;17.93;40.94;98646.34;5032016;28;20051;-78
2022/12/26 08:06:24;;;;;;;16.42;12.25;;;16.20;75.80;;;17.96;41.44;98642.97;5013551;28;20037;-78
2022/12/26 08:08:50;;;;;;;15.55;11.35;;;16.20;76.00;;;17.95;41.10;98646.84;5066052;28;20474;-78
2022/12/26 08:11:22;;;;;;;13.85;10.55;;;16.20;76.00;;;17.94;41.32;98655.41;5042208;28;20476;-78
2022/12/26 08:13:49;;;;;;;16.30;10.50;;;16.30;76.00;;;17.94;41.07;98669.94;5046208;28;20040;-78
2022/12/26 08:16:15;;;;;;;12.85;10.90;;;16.20;76.00;;;17.97;41.50;98672.03;5001366;28;20037;-77
2022/12/26 08:18:42;;;;;;;16.23;11.63;;;16.20;76.00;;;18.02;41.06;98670.25;5029606;28;20750;-77
2022/12/26 08:21:08;;;;;;;13.45;10.02;;;16.20;76.00;;;17.99;41.35;98675.25;5015774;28;20036;-78
2022/12/26 08:23:34;;;;;;;15.15;11.07;;;16.20;75.90;;;18.03;41.29;98663.63;5011118;28;20060;-78
2022/12/26 08:26:06;;;;;;;17.95;10.50;;;16.20;76.00;;;18.00;41.36;98660.38;5016751;28;20044;-78
2022/12/26 08:28:32;;;;;;;16.90;10.27;;;16.30;76.10;;;18.02;41.52;98659.28;5052358;28;20064;-78
2022/12/26 08:31:08;;;;;;;15.82;11.88;;;16.30;76.00;;;18.05;41.30;98675.06;5018044;28;20048;-78
2022/12/26 08:33:35;;;;;;;14.05;11.23;;;16.30;76.20;;;17.99;41.66;98677.19;5020598;28;20037;-78
2022/12/26 08:36:03;;;;;;;14.20;10.52;;;16.30;76.40;;;17.94;41.96;98678.16;5031898;28;20093;-77
2022/12/26 08:38:29;;;;;;;14.32;10.77;;;16.40;76.50;;;17.98;41.92;98676.38;5034418;28;20044;-78
2022/12/26 08:40:55;;;;;;;13.13;9.80;;;16.30;76.70;;;17.98;41.84;98672.81;5018327;28;20064;-78
2022/12/26 08:43:23;;;;;;;12.45;10.98;;;16.40;76.50;;;17.96;41.80;98667.66;5030533;28;20043;-77
2022/12/26 08:46:00;;;;;;;15.07;10.32;;;16.30;76.50;;;17.99;41.83;98679.94;5017132;28;20098;-78
2022/12/26 08:48:27;;;;;;;14.98;10.35;;;16.30;76.60;;;18.00;41.61;98671.38;5035414;28;20039;-78
2022/12/26 08:51:02;;;;;;;13.63;9.77;;;16.30;76.70;;;18.04;41.51;98673.44;5048542;28;20186;-77
2022/12/26 08:53:29;;;;;;;16.65;9.70;;;16.30;77.00;;;18.03;42.18;98671.84;5015706;28;20153;-78
2022/12/26 08:55:55;;;;;;;18.70;10.40;;;16.40;77.10;;;18.04;41.71;98673.44;5032644;28;20033;-78
2022/12/26 08:58:22;;;;;;;19.63;9.98;;;16.40;76.60;;;18.06;41.76;98671.19;5003765;28;20058;-78
2022/12/26 09:00:47;;;;;;;11.32;9.57;;;16.40;76.60;;;18.00;41.79;98668.63;5047277;28;20618;-77
2022/12/26 09:03:14;;;;;;;15.38;10.38;;;16.30;76.70;;;18.04;41.75;98678.94;5017681;28;20094;-77
2022/12/26 09:05:41;;;;;;;18.05;9.93;;;16.30;76.70;;;18.04;41.97;98684.44;5033729;28;20048;-77
2022/12/26 09:08:07;;;;;;;14.30;9.95;;;16.30;77.00;;;18.07;41.83;98683.81;5048824;28;20033;-77
2022/12/26 09:10:33;;;;;;;15.25;10.40;;;16.40;77.20;;;18.09;42.06;98687.00;5015799;28;20049;-77
2022/12/26 09:13:02;;;;;;;14.75;10.20;;;16.40;77.10;;;18.14;41.64;98673.09;5029998;28;20087;-78
2022/12/26 09:15:28;;;;;;;14.60;10.15;;;16.40;77.00;;;18.16;41.75;98679.88;5028564;28;20400;-77
2022/12/26 09:17:54;;;;;;;15.70;11.07;;;16.40;77.00;;;18.12;41.69;98683.63;5034140;28;20135;-78
2022/12/26 09:20:20;;;;;;;16.73;10.07;;;16.40;76.90;;;18.13;41.65;98680.53;5012195;28;20047;-78
2022/12/26 09:22:49;;;;;;;16.15;10.82;;;16.40;76.80;;;18.06;42.08;98687.66;5039403;28;20041;-78
2022/12/26 09:25:23;;;;;;;14.55;9.23;;;16.40;76.90;;;18.06;41.85;98682.97;5001150;28;20037;-78
2022/12/26 09:27:52;;;;;;;14.00;10.27;;;16.50;76.70;;;18.05;42.05;98680.56;5017919;28;20047;-78
2022/12/26 09:30:19;;;;;;;16.50;10.98;;;16.40;76.80;;;18.09;41.89;98665.88;5028873;28;20044;-78
2022/12/26 09:32:46;;;;;;;14.73;9.75;;;16.40;76.80;;;18.08;42.03;98661.50;5017302;28;20056;-78
2022/12/26 09:35:12;;;;;;;14.65;9.70;;;16.50;76.70;;;18.14;41.50;98657.47;5015658;28;20033;-78
2022/12/26 09:37:38;;;;;;;13.30;10.05;;;16.50;76.60;;;18.17;41.83;98647.75;5019624;28;20483;-78
2022/12/26 09:40:06;;;;;;;19.15;9.93;;;16.50;76.50;;;18.16;41.73;98657.13;5018609;28;20041;-78
2022/12/26 09:42:49;;;;;;;16.48;10.43;;;16.50;76.30;;;18.14;41.45;98662.13;5028921;28;20048;-78
2022/12/26 09:45:17;;;;;;;18.23;11.38;;;16.60;76.30;;;18.17;41.58;98654.06;5044600;28;20041;-79
2022/12/26 09:48:31;;;;;;;14.07;10.45;;;16.60;76.20;;;18.16;41.44;98648.88;5019366;28;20425;-79
2022/12/26 09:50:57;;;;;;;18.45;11.57;;;16.60;76.20;;;18.17;41.39;98647.75;4997238;28;20086;-78
2022/12/26 09:53:33;;;;;;;14.70;9.82;;;16.60;76.00;;;18.17;41.52;98647.75;5032302;28;20437;-79
2022/12/26 09:56:05;;;;;;;17.98;11.52;;;16.70;75.70;;;18.18;41.27;98650.16;5022206;28;20049;-78
2022/12/26 09:58:47;;;;;;;14.55;9.45;;;16.60;75.90;;;18.19;41.52;98651.78;5017660;28;20053;-78
2022/12/26 10:01:20;;;;;;;19.27;10.68;;;16.70;75.90;;;18.23;41.42;98655.47;5022721;28;20494;-79
2022/12/26 10:03:57;;;;;;;15.63;10.38;;;16.60;75.80;;;18.18;41.34;98657.59;5036595;28;20048;-78
2022/12/26 10:06:35;;;;;;;14.55;10.65;;;16.70;75.80;;;18.20;41.42;98663.56;5019222;28;20041;-79
2022/12/26 10:09:29;;;;;;;15.30;10.77;;;16.70;76.30;;;18.20;41.62;98669.06;5035158;28;20041;-78
2022/12/26 10:12:04;;;;;;;14.38;10.30;;;16.80;76.30;;;18.22;41.84;98672.28;5063675;28;20581;-78
2022/12/26 10:15:00;;;;;;;17.75;10.65;;;16.80;76.50;;;18.15;41.68;98664.56;5047571;28;20377;-79
2022/12/26 10:17:37;;;;;;;22.55;9.60;;;16.70;75.90;;;18.09;41.72;98665.88;5061125;28;20044;-78
2022/12/26 10:20:25;;;;;;;15.35;10.77;;;16.70;76.10;;;18.15;41.72;98656.31;5059124;28;20037;-78
2022/12/26 10:23:13;;;;;;;14.90;10.88;;;16.70;76.10;;;18.20;42.03;98649.84;5015675;28;20123;-78
2022/12/26 10:25:59;;;;;;;17.77;9.80;;;16.80;76.60;;;18.26;41.79;98645.78;5061259;28;20045;-79
2022/12/26 10:28:43;;;;;;;15.55;10.52;;;16.80;76.40;;;18.27;41.79;98636.44;5012734;28;20400;-78
2022/12/26 10:31:37;;;;;;;14.77;10.15;;;16.80;76.50;;;18.28;41.62;98631.72;5044246;28;20070;-78
2022/12/26 10:34:13;;;;;;;14.07;10.90;;;16.80;76.00;;;18.22;41.58;98617.38;5046777;28;20051;-79
2022/12/26 10:37:06;;;;;;;16.45;10.90;;;16.80;75.90;;;18.22;41.52;98620.13;5048029;28;20046;-78
2022/12/26 10:39:47;;;;;;;17.85;9.70;;;16.80;75.90;;;18.34;41.84;98606.53;5014416;28;20052;-79
2022/12/26 10:42:43;;;;;;;15.68;10.15;;;16.80;76.20;;;18.36;41.96;98606.97;5043464;28;20037;-78
2022/12/26 10:45:32;;;;;;;13.93;9.60;;;16.90;76.40;;;18.30;41.61;98591.03;5004699;28;20177;-78
2022/12/26 10:47:58;;;;;;;14.88;9.32;;;16.90;76.10;;;18.36;41.96;98597.94;5014989;28;20033;-79
2022/12/26 10:50:30;;;;;;;15.98;9.55;;;16.90;76.40;;;18.32;41.65;98597.81;5005430;28;20415;-79
2022/12/26 10:52:57;;;;;;;;;;;17.00;75.80;;;18.27;41.69;98584.25;5029796;28;20124;-79
2022/12/26 10:55:33;;;;;;;15.35;9.85;;;16.90;76.00;;;18.33;42.05;98593.13;5026855;28;20580;-79
2022/12/26 10:58:18;;;;;;;12.98;9.75;;;16.90;76.30;;;18.35;42.00;98591.66;5016945;28;20111;-78
2022/12/26 11:00:44;;;;;;;16.23;9.40;;;17.00;76.40;;;18.40;41.79;98587.91;5047522;28;20049;-78
2022/12/26 11:03:13;;;;;;;18.30;10.52;;;17.00;76.20;;;18.34;41.87;98581.81;5014372;28;20049;-79
2022/12/26 11:05:50;;;;;;;15.27;10.45;;;17.10;75.80;;;18.33;41.67;98566.47;5023690;28;20068;-78
2022/12/26 11:08:26;;;;;;;22.20;10.95;;;17.10;75.70;;;18.35;41.87;98568.88;5014419;28;20476;-78
2022/12/26 11:11:03;;;;;;;19.55;11.15;;;17.00;75.80;;;18.37;41.93;98575.66;5065017;28;20431;-78
2022/12/26 11:13:34;;;;;;;14.40;9.85;;;17.00;76.10;;;18.38;42.02;98569.00;5043157;28;20051;-78
2022/12/26 11:16:00;;;;;;;16.77;10.85;;;17.10;76.10;;;18.41;41.96;98578.53;5011696;28;20481;-78
2022/12/26 11:18:27;;;;;;;14.30;10.45;;;17.10;76.20;;;18.36;41.92;98582.25;5034670;28;20091;-78
2022/12/26 11:20:53;;;;;;;17.23;11.43;;;17.10;75.70;;;18.31;41.88;98579.69;5053715;28;20037;-78
2022/12/26 11:23:27;;;;;;;20.70;11.20;;;17.10;75.70;;;18.34;41.84;98590.06;5028670;28;20045;-78
2022/12/26 11:25:59;;;;;;;27.40;10.70;;;17.10;75.50;;;18.36;41.86;98585.00;5041412;28;20041;-79
2022/12/26 11:28:32;;;;;;;;;;;17.10;75.50;;;18.39;41.98;98586.28;5031213;28;20055;-79
2022/12/26 11:31:00;;;;;;;28.38;12.27;;;17.10;75.80;;;18.46;41.93;98588.53;5035035;28;19924;-79
2022/12/26 11:33:28;;;;;;;20.30;11.20;;;17.10;76.10;;;18.41;41.89;98582.06;5025661;28;20044;-78
2022/12/26 11:36:14;;;;;;;22.23;13.00;;;17.20;75.60;;;18.36;41.83;98575.97;5046926;28;20175;-79
2022/12/26 11:38:49;;;;;;;19.40;11.45;;;17.20;75.60;;;18.40;41.75;98568.69;5035321;28;20090;-79
2022/12/26 11:41:32;;;;;;;;;;;17.20;75.60;;;18.33;41.82;98566.47;5027690;28;20052;-78
2022/12/26 11:44:08;;;;;;;28.38;13.88;;;17.20;75.60;;;18.41;41.97;98562.84;5043763;28;20011;-78
2022/12/26 11:46:44;;;;;;;35.28;13.93;;;17.20;75.60;;;18.41;41.90;98568.34;5061137;28;20060;-78
2022/12/26 11:49:26;;;;;;;26.13;14.15;;;17.20;75.60;;;18.41;41.71;98568.34;5010822;28;20037;-79
2022/12/26 11:51:52;;;;;;;26.42;14.30;;;17.20;75.60;;;18.36;41.62;98554.00;5058100;28;20053;-78
2022/12/26 11:54:31;;;;;;;21.05;12.80;;;17.20;75.60;;;18.35;41.84;98550.47;5032710;28;20040;-78
2022/12/26 11:57:19;;;;;;;28.25;12.57;;;17.20;76.40;;;18.35;41.72;98553.22;5032863;28;20045;-78
2022/12/26 11:59:48;;;;;;;27.00;14.70;;;17.20;75.60;;;18.40;42.01;98552.22;5044319;28;20041;-78
2022/12/26 12:02:29;;;;;;;25.73;14.18;;;17.20;75.60;;;18.43;41.97;98555.09;5018267;28;20163;-78
2022/12/26 12:05:03;;;;;;;;;;;17.30;75.70;;;18.38;41.92;98547.03;5015276;28;20052;-78
2022/12/26 12:07:32;;;;;;;23.40;13.75;;;17.30;75.70;;;18.38;41.83;98547.03;5017956;28;19978;-78
2022/12/26 12:10:23;;;;;;;28.00;14.05;;;17.30;75.50;;;18.37;41.77;98544.66;5038936;28;20040;-78
2022/12/26 12:13:18;;;;;;;28.67;13.48;;;17.30;75.60;;;18.41;41.73;98551.88;5044707;28;20045;-78
2022/12/26 12:15:59;;;;;;;30.60;12.93;;;17.30;75.40;;;18.41;41.80;98542.84;5016533;28;20040;-78
2022/12/26 12:19:02;;;;;;;24.60;14.33;;;17.30;75.50;;;18.42;41.68;98542.50;5033992;28;20052;-78
2022/12/26 12:21:47;;;;;;;27.58;13.50;;;17.40;75.50;;;18.41;41.77;98543.63;5057653;28;20089;-78
2022/12/26 12:24:16;;;;;;;29.25;14.23;;;17.30;75.30;;;18.37;41.66;98537.22;5035321;28;20044;-78
2022/12/26 12:27:20;;;;;;;27.92;15.13;;;17.30;75.30;;;18.38;41.82;98533.31;5062967;28;20040;-78
2022/12/26 12:29:58;;;;;;;26.88;13.80;;;17.30;75.30;;;18.39;41.72;98520.38;5018606;28;20045;-78